Accueil
METAR-TAF:

METAR-TAF

Aéroports :

Base aérienne de Morón

Morón de la Frontera, Espagne

latitude: 37-09N, longitude: 005-37W, altitude: 87 m

Observation

Le bulletin a été fait il y a 19 minutes, à 08:00 UTC
Vent 5 kt de est/nord-est
Température 11°C
Humidité 87%
Pression 1029 hPa
Visibilité: 5000 m
Quelques nuages à une hauteur de 4500 ft
brume

METAR: LEMO 190800Z 06005KT 5000 BR FEW045 11/09 Q1029 NOSIG

Heure: 09:19 (08:19 UTC)

Prévision

Le bulletin a été fait il y a 3 heures et 19 minutes, à 05:00 UTC
Prévision valable du 19 à 06 UTC au 19 à 15 UTC
Vent 6 kt de est/sud-est
Visibilité 10 km ou plus
Nuages épars à une hauteur de 4000 ft
Probabilité 40% :
Temporairement
du 19 à 06 UTC au 19 à 09 UTC
Visibilité: 3000 m
brume

TAF: LEMO 190500Z 1906/1915 11006KT 9999 SCT040 PROB40 TEMPO 1906/1909 3000 BR

Observations et prévisions météorologiques de plus de 4000 aéroports (messages METAR et TAF).

Les stations disponibles sont représentées par des disques jaunes et rouges sur la carte.

Passer la souris dessus pour voir le nom de la station.

Cliquer dessus pour voir les observations et prévisions météorologiques.

Pour changer de carte: cliquez sur les boutons verts avec une croix noire pour zoomer, sur le bouton vert avec un tiret pour effectuer un zoom arrière, ou sur les flèches vertes pour les cartes adjacentes.


METAR-TAF: